Abdaly, Kuwait

5:53 AM AST on December 22, 2014 (GMT +0300)
Abdally | Change Station
CLOSE
Current Station
Personal Weather Station
Location: Abdally, JAHRA
Elevation: 46 ft
Nearby Weather Stations

Elev 46 ft 30.03 °N, 47.75 °E | Updated 10 minutes ago

Clear
Clear
49.0 °F
Feels Like 45 °F
N
9.0
Wind Variable Wind from WNW
Gusts 13.0 mph

Today
High -- | Low -- °F
--% Chance of Precip.
Yesterday
High -- | Low -- °F
Precip. -- in
6:41 AM 4:53 PM
New Moon, 0% visible
Pressure 30.04 in
Visibility -9999.0 miles
Clouds
Windchill 45 °F
Dew Point 43 °F
Humidity 81%
Rainfall 0.00 in
Snow Depth Not available.
UV Not available.
Pollen Not available.
Air Quality Not available.
Flu Activity Not available.
METAR OIAA 220200Z 31004KT CAVOK 12/09 Q1017

More Conditions Fewer Conditions

Pressure 30.04 in
Visibility -9999.0 miles
Clouds
Windchill 45 °F
Dew Point 43 °F
Humidity 81%
Rainfall 0.00 in
Snow Depth Not available.
UV Not available.
Pollen Not available.
Air Quality Not available.
Flu Activity Not available.
METAR OIAA 220200Z 31004KT CAVOK 12/09 Q1017

More Conditions Fewer Conditions

10-Day Weather Forecast

Almanac

Astronomy

Dec. 22, 2014 Rise Set
Actual Time
Civil Twilight
Nautical Twilight
Astronomical Twilight
Moon
Length of Visible Light
Length of Day
Tomorrow will be .
, % of the Moon is Illuminated

Today's Extremes

Country Highs Country Lows

Community

WunderPhotos

Upload Photos

1,779,528 photos uploaded!

WunderBlogs® & News

Nearby

Air Quality

  Air Quality AQ Index Pollutant
Not available.

Snow Depth

Station Depth Elevation

Earthquake Activity

City Distance Mag. Time & Date
Minimum magnitude displayed is 2.5.

Coastal Water Temperatures

Place Temperature

Nearby Weather Stations